Time;durP1;ratioP1;P1;durP2;ratioP2;P2;SDS_P1;SDS_P2;PMS_P1;PMS_P2;Temp;Humidity;BMP_temperature;BMP_pressure;BME280_temperature;BME280_humidity;BME280_pressure;Samples;Min_cycle;Max_cycle;Signal;HPM_P1;HPM_P2
2023/06/22 00:01:30;;;;;;;7.00;5.67;;;18.90;51.20;;;;;;5089303;28;20243;-59
2023/06/22 00:03:58;;;;;;;9.00;5.97;;;18.90;56.30;;;;;;5087828;28;20328;-58
2023/06/22 00:06:26;;;;;;;6.07;5.23;;;18.80;55.50;;;;;;5090798;28;20191;-59
2023/06/22 00:08:54;;;;;;;7.47;5.30;;;18.80;54.20;;;;;;5093011;28;20249;-59
2023/06/22 00:11:24;;;;;;;8.10;6.17;;;18.70;56.10;;;;;;5091714;28;20743;-58
2023/06/22 00:13:52;;;;;;;8.17;6.07;;;18.70;54.00;;;;;;5091634;28;20222;-59
2023/06/22 00:16:21;;;;;;;7.93;6.60;;;18.70;58.20;;;;;;5092699;28;20222;-59
2023/06/22 00:18:49;;;;;;;8.13;6.27;;;18.70;74.10;;;;;;5091296;28;20596;-59
2023/06/22 00:21:20;;;;;;;7.50;6.60;;;18.60;70.60;;;;;;5087572;28;20199;-59
2023/06/22 00:23:48;;;;;;;7.00;6.00;;;18.60;74.60;;;;;;5090715;28;20264;-59
2023/06/22 00:26:17;;;;;;;8.77;6.50;;;18.60;76.40;;;;;;5092442;28;20557;-59
2023/06/22 00:28:46;;;;;;;9.47;6.23;;;18.50;71.10;;;;;;5092725;28;20207;-59
2023/06/22 00:31:15;;;;;;;6.77;5.93;;;18.50;78.60;;;;;;5081657;28;20214;-59
2023/06/22 00:33:43;;;;;;;7.27;6.17;;;18.50;89.10;;;;;;5092861;28;20208;-59
2023/06/22 00:36:15;;;;;;;8.87;6.80;;;18.50;93.40;;;;;;5090890;28;20188;-58
2023/06/22 00:38:44;;;;;;;7.53;6.70;;;18.40;91.20;;;;;;5093989;28;20223;-59
2023/06/22 00:41:12;;;;;;;8.07;5.97;;;18.40;90.60;;;;;;5092528;28;20230;-59
2023/06/22 00:43:42;;;;;;;9.83;6.90;;;18.30;88.00;;;;;;5089999;28;20665;-59
2023/06/22 00:46:12;;;;;;;7.73;6.87;;;18.20;87.40;;;;;;5085636;28;20235;-59
2023/06/22 00:48:43;;;;;;;9.17;6.80;;;18.20;85.20;;;;;;5085777;28;20613;-59
2023/06/22 00:51:12;;;;;;;11.87;6.70;;;18.20;90.60;;;;;;5091928;28;20722;-59
2023/06/22 00:53:40;;;;;;;7.43;6.63;;;18.10;90.90;;;;;;5091665;28;20202;-60
2023/06/22 00:56:12;;;;;;;7.53;5.97;;;18.10;92.50;;;;;;5092184;28;20226;-59
2023/06/22 00:58:41;;;;;;;7.90;6.27;;;18.10;94.90;;;;;;5091085;28;20215;-59
2023/06/22 01:01:11;;;;;;;10.53;7.00;;;18.10;95.60;;;;;;5085499;28;20689;-59
2023/06/22 01:03:39;;;;;;;7.80;7.00;;;18.10;95.10;;;;;;5089869;28;20275;-59
2023/06/22 01:06:10;;;;;;;8.93;7.00;;;18.10;99.90;;;;;;5090710;28;20233;-59
2023/06/22 01:08:47;;;;;;;7.80;7.00;;;18.10;99.90;;;;;;5090330;28;20218;-59
2023/06/22 01:11:21;;;;;;;10.07;7.33;;;18.10;99.90;;;;;;5090330;28;20580;-59
2023/06/22 01:13:58;;;;;;;10.80;8.47;;;18.10;99.90;;;;;;5086618;28;20682;-60
2023/06/22 01:16:31;;;;;;;9.03;7.67;;;18.00;98.50;;;;;;5088543;28;20221;-59
2023/06/22 01:19:06;;;;;;;10.67;8.43;;;18.00;99.90;;;;;;5089016;28;20219;-59
2023/06/22 01:21:35;;;;;;;10.77;7.37;;;18.00;99.90;;;;;;5089064;28;20748;-60
2023/06/22 01:24:18;;;;;;;8.93;7.57;;;17.90;99.90;;;;;;5089419;28;20188;-59
2023/06/22 01:26:58;;;;;;;14.60;8.53;;;17.90;99.90;;;;;;5087513;28;20215;-59
2023/06/22 01:29:29;;;;;;;10.43;7.87;;;17.90;99.90;;;;;;5086885;28;20218;-59
2023/06/22 01:31:58;;;;;;;10.70;8.17;;;17.80;99.90;;;;;;5086698;28;20215;-60
2023/06/22 01:34:27;;;;;;;10.23;7.90;;;17.80;99.90;;;;;;5090165;28;20215;-59
2023/06/22 01:36:56;;;;;;;11.93;8.33;;;17.80;99.90;;;;;;5082483;28;20687;-59
2023/06/22 01:39:26;;;;;;;9.03;7.90;;;17.70;99.90;;;;;;5086793;28;20225;-59
2023/06/22 01:41:55;;;;;;;11.27;7.57;;;17.70;99.90;;;;;;5089650;28;20199;-59
2023/06/22 01:44:23;;;;;;;7.87;7.07;;;17.60;99.90;;;;;;5088941;28;20226;-60
2023/06/22 01:46:53;;;;;;;9.67;7.03;;;17.60;99.90;;;;;;5088248;28;20215;-59
2023/06/22 01:49:22;;;;;;;9.23;7.57;;;17.60;99.90;;;;;;5088762;28;20236;-59
2023/06/22 01:51:50;;;;;;;11.33;7.73;;;17.60;99.90;;;;;;5085437;28;20225;-60
2023/06/22 01:54:19;;;;;;;12.47;7.93;;;17.50;99.90;;;;;;5089113;27;20198;-59
2023/06/22 01:56:47;;;;;;;12.27;8.23;;;17.50;99.90;;;;;;5086655;28;20195;-59
2023/06/22 01:59:26;;;;;;;9.23;8.20;;;17.40;99.90;;;;;;5089993;28;20210;-59
2023/06/22 02:02:02;;;;;;;13.93;7.90;;;17.50;99.90;;;;;;5086669;28;20700;-59
2023/06/22 02:04:37;;;;;;;12.63;8.10;;;17.40;99.90;;;;;;5088264;28;20218;-60
2023/06/22 02:07:13;;;;;;;9.60;7.30;;;17.40;99.90;;;;;;5081021;28;20221;-59
2023/06/22 02:09:45;;;;;;;10.70;8.10;;;17.40;99.90;;;;;;5091366;28;20230;-59
2023/06/22 02:12:17;;;;;;;9.17;7.60;;;17.40;99.90;;;;;;5082378;28;20194;-60
2023/06/22 02:14:47;;;;;;;12.40;8.00;;;17.40;99.90;;;;;;5086452;28;20646;-59
2023/06/22 02:17:19;;;;;;;12.67;7.93;;;17.40;99.90;;;;;;5082177;28;20227;-60
2023/06/22 02:19:47;;;;;;;10.83;8.13;;;17.30;99.90;;;;;;5089487;28;20226;-59
2023/06/22 02:22:15;;;;;;;11.20;7.70;;;17.30;99.90;;;;;;5090110;28;20215;-59
2023/06/22 02:24:44;;;;;;;10.03;7.87;;;17.20;99.90;;;;;;5090760;28;20306;-59
2023/06/22 02:27:12;;;;;;;11.60;8.30;;;17.20;99.90;;;;;;5089271;28;20186;-59
2023/06/22 02:29:41;;;;;;;10.00;7.60;;;17.20;99.90;;;;;;5089405;28;20184;-59
2023/06/22 02:32:10;;;;;;;10.53;8.33;;;17.10;99.90;;;;;;5087399;28;20226;-59
2023/06/22 02:34:39;;;;;;;11.53;8.77;;;17.10;99.90;;;;;;5088974;28;20680;-59
2023/06/22 02:37:07;;;;;;;9.90;7.87;;;17.10;99.90;;;;;;5087458;28;20692;-59
2023/06/22 02:39:36;;;;;;;14.93;9.40;;;17.10;99.90;;;;;;5085199;28;20819;-59
2023/06/22 02:42:05;;;;;;;12.83;9.07;;;17.10;99.90;;;;;;5084942;28;20207;-59
2023/06/22 02:44:33;;;;;;;10.37;8.33;;;17.10;99.90;;;;;;5083892;28;20223;-59
2023/06/22 02:47:02;;;;;;;13.07;9.03;;;17.10;99.90;;;;;;5086370;28;20565;-60
2023/06/22 02:49:30;;;;;;;14.80;8.83;;;17.10;99.90;;;;;;5087832;28;20222;-59
2023/06/22 02:52:00;;;;;;;14.20;9.23;;;17.10;99.90;;;;;;5085889;28;20226;-59
2023/06/22 02:54:28;;;;;;;11.77;8.57;;;17.20;99.90;;;;;;5088482;28;20613;-59
2023/06/22 02:56:56;;;;;;;11.50;8.80;;;17.10;99.90;;;;;;5088710;28;20204;-59
2023/06/22 02:59:25;;;;;;;11.10;8.80;;;17.10;99.90;;;;;;5081062;28;20229;-59
2023/06/22 03:01:53;;;;;;;13.23;8.77;;;17.00;99.90;;;;;;5087891;28;20226;-59
2023/06/22 03:04:21;;;;;;;12.97;9.07;;;17.00;99.90;;;;;;5088252;28;20246;-59
2023/06/22 03:06:50;;;;;;;16.47;9.73;;;17.00;99.90;;;;;;5080392;28;20685;-59
2023/06/22 03:09:21;;;;;;;15.23;10.03;;;17.00;99.90;;;;;;5085032;28;20227;-59
2023/06/22 03:11:49;;;;;;;13.60;9.43;;;17.00;99.90;;;;;;5087636;28;20184;-59
2023/06/22 03:14:18;;;;;;;12.80;9.10;;;17.00;99.90;;;;;;5088166;28;20553;-59
2023/06/22 03:16:46;;;;;;;16.70;10.53;;;17.00;99.90;;;;;;5086059;28;20234;-59
2023/06/22 03:19:15;;;;;;;13.97;10.10;;;17.00;99.90;;;;;;5080271;28;20223;-59
2023/06/22 03:21:43;;;;;;;15.17;9.83;;;17.00;99.90;;;;;;5079710;28;20230;-59
2023/06/22 03:24:12;;;;;;;14.07;9.13;;;17.00;99.90;;;;;;5071549;28;20205;-58
2023/06/22 03:26:41;;;;;;;14.93;9.73;;;17.00;99.90;;;;;;5086515;28;20206;-59
2023/06/22 03:29:10;;;;;;;14.57;9.80;;;17.00;99.90;;;;;;5084547;28;20216;-59
2023/06/22 03:31:38;;;;;;;13.50;9.27;;;17.00;99.90;;;;;;5085976;28;20221;-59
2023/06/22 03:34:07;;;;;;;14.50;10.10;;;16.90;99.90;;;;;;5083632;28;20280;-59
2023/06/22 03:36:35;;;;;;;13.33;9.70;;;16.90;99.90;;;;;;5065961;28;20220;-59
2023/06/22 03:39:04;;;;;;;15.80;9.53;;;16.80;99.90;;;;;;5090573;28;20760;-59
2023/06/22 03:41:32;;;;;;;12.03;9.57;;;16.80;99.90;;;;;;5083266;28;20601;-59
2023/06/22 03:44:02;;;;;;;10.87;9.00;;;16.80;99.90;;;;;;5082641;28;20222;-59
2023/06/22 03:46:30;;;;;;;11.83;9.47;;;16.80;99.90;;;;;;5088074;28;20713;-59
2023/06/22 03:48:58;;;;;;;13.83;10.00;;;16.80;99.90;;;;;;5088082;28;20246;-59
2023/06/22 03:51:27;;;;;;;11.50;9.20;;;16.90;99.90;;;;;;5088826;28;20223;-59
2023/06/22 03:53:56;;;;;;;15.30;9.93;;;16.90;99.90;;;;;;5087675;28;20712;-59
2023/06/22 03:56:24;;;;;;;14.53;9.50;;;16.90;99.90;;;;;;5070343;28;20218;-59
2023/06/22 03:58:53;;;;;;;12.77;9.73;;;16.90;99.90;;;;;;5085309;28;20210;-59
2023/06/22 04:01:22;;;;;;;12.20;8.87;;;16.90;99.90;;;;;;5088352;28;20217;-60
2023/06/22 04:03:51;;;;;;;12.40;9.60;;;16.90;99.90;;;;;;5092083;28;20215;-59
2023/06/22 04:06:19;;;;;;;11.50;8.40;;;17.00;99.90;;;;;;5092319;28;20191;-58
2023/06/22 04:08:50;;;;;;;12.93;9.27;;;17.00;99.90;;;;;;5082813;28;20195;-59
2023/06/22 04:11:19;;;;;;;13.40;9.17;;;17.00;99.90;;;;;;5088596;28;20240;-59
2023/06/22 04:13:48;;;;;;;10.07;8.13;;;17.10;99.90;;;;;;5093020;28;20342;-59
2023/06/22 04:16:16;;;;;;;11.07;8.53;;;17.10;99.90;;;;;;5086691;28;20215;-59
2023/06/22 04:18:46;;;;;;;11.63;8.83;;;17.10;99.90;;;;;;5088220;28;20659;-59
2023/06/22 04:21:15;;;;;;;11.00;8.57;;;17.10;99.90;;;;;;5085316;28;20212;-59
2023/06/22 04:23:44;;;;;;;12.37;9.57;;;17.20;99.90;;;;;;5093215;28;20719;-59
2023/06/22 04:26:13;;;;;;;10.97;9.17;;;17.20;99.90;;;;;;5091372;28;20254;-59
2023/06/22 04:28:41;;;;;;;13.10;9.13;;;17.20;99.90;;;;;;5092155;28;20227;-59
2023/06/22 04:31:09;;;;;;;15.53;9.07;;;17.30;99.90;;;;;;5091488;28;20229;-59
2023/06/22 04:33:40;;;;;;;13.43;9.53;;;17.30;99.90;;;;;;5089637;28;20723;-59
2023/06/22 04:36:13;;;;;;;11.27;8.40;;;17.30;99.90;;;;;;5089727;28;20192;-60
2023/06/22 04:38:42;;;;;;;10.70;8.90;;;17.40;99.90;;;;;;5092092;28;20211;-59
2023/06/22 04:41:23;;;;;;;10.13;8.73;;;17.40;99.90;;;;;;5089181;28;20579;-58
2023/06/22 04:43:53;;;;;;;14.30;9.10;;;17.40;99.90;;;;;;5091423;28;20534;-59
2023/06/22 04:46:22;;;;;;;13.23;8.77;;;17.50;99.90;;;;;;5086326;28;20851;-59
2023/06/22 04:48:50;;;;;;;9.27;8.37;;;17.50;99.90;;;;;;5089606;28;20234;-59
2023/06/22 04:51:21;;;;;;;10.60;8.23;;;17.50;99.90;;;;;;5088669;28;20195;-59
2023/06/22 04:53:50;;;;;;;9.37;8.37;;;17.60;99.90;;;;;;5089365;28;20288;-59
2023/06/22 04:56:18;;;;;;;9.57;8.10;;;17.60;99.90;;;;;;5085236;28;20211;-59
2023/06/22 04:58:46;;;;;;;10.60;8.53;;;17.70;99.90;;;;;;5089905;28;20211;-59
2023/06/22 05:01:14;;;;;;;8.57;7.77;;;17.80;99.90;;;;;;5087165;28;20234;-59
2023/06/22 05:03:43;;;;;;;8.97;7.93;;;17.90;99.90;;;;;;5085507;28;20790;-59
2023/06/22 05:06:14;;;;;;;10.40;8.27;;;18.00;99.90;;;;;;5087870;28;20218;-59
2023/06/22 05:08:43;;;;;;;9.43;8.23;;;18.10;99.90;;;;;;5086811;28;20657;-59
2023/06/22 05:11:11;;;;;;;12.63;8.37;;;18.20;99.90;;;;;;5088368;28;21358;-59
2023/06/22 05:13:40;;;;;;;9.30;7.30;;;18.20;99.90;;;;;;5088388;28;20226;-59
2023/06/22 05:16:08;;;;;;;10.97;8.23;;;18.30;99.90;;;;;;5090080;28;20249;-59
2023/06/22 05:18:36;;;;;;;9.17;8.27;;;18.40;99.90;;;;;;5089081;28;20215;-59
2023/06/22 05:21:05;;;;;;;10.60;8.40;;;18.40;99.90;;;;;;5089329;28;20199;-59
2023/06/22 05:23:33;;;;;;;9.77;7.73;;;18.40;99.90;;;;;;5069142;28;20227;-59
2023/06/22 05:26:03;;;;;;;13.70;8.47;;;18.40;99.90;;;;;;5087060;28;20226;-59
2023/06/22 05:28:31;;;;;;;11.17;8.50;;;18.50;99.90;;;;;;5084013;28;20703;-59
2023/06/22 05:31:00;;;;;;;12.37;7.77;;;18.50;99.60;;;;;;5084499;28;20219;-59
2023/06/22 05:33:28;;;;;;;9.30;7.97;;;18.50;99.50;;;;;;5080754;28;20606;-60
2023/06/22 05:35:56;;;;;;;9.73;7.57;;;18.60;99.10;;;;;;5087123;28;20191;-59
2023/06/22 05:38:24;;;;;;;11.27;7.90;;;18.60;98.60;;;;;;5087382;28;20227;-60
2023/06/22 05:40:53;;;;;;;12.30;9.03;;;18.70;98.20;;;;;;5085214;28;20217;-60
2023/06/22 05:43:23;;;;;;;8.70;7.40;;;18.70;99.90;;;;;;5085591;28;20238;-59
2023/06/22 05:45:51;;;;;;;8.83;7.10;;;18.80;99.90;;;;;;5088149;28;20223;-59
2023/06/22 05:48:19;;;;;;;11.93;8.13;;;18.80;99.90;;;;;;5087615;28;20311;-59
2023/06/22 05:50:47;;;;;;;12.60;8.73;;;18.90;99.90;;;;;;5085557;28;20192;-59
2023/06/22 05:53:16;;;;;;;11.80;8.37;;;19.00;99.90;;;;;;5088333;28;20264;-59
2023/06/22 05:55:44;;;;;;;10.27;8.00;;;19.10;99.20;;;;;;5087418;28;20230;-60
2023/06/22 05:58:13;;;;;;;12.37;9.27;;;19.10;96.90;;;;;;5087116;28;20258;-59
2023/06/22 06:00:43;;;;;;;12.20;9.17;;;19.20;97.10;;;;;;5085533;28;20218;-59
2023/06/22 06:03:12;;;;;;;12.03;8.77;;;19.20;93.80;;;;;;5089934;28;20195;-59
2023/06/22 06:05:43;;;;;;;11.07;9.20;;;19.30;92.10;;;;;;5090647;28;20638;-59
2023/06/22 06:08:12;;;;;;;15.57;8.97;;;19.30;92.00;;;;;;5086724;28;20562;-58
2023/06/22 06:10:40;;;;;;;12.20;8.60;;;19.40;91.10;;;;;;5084895;28;20214;-60
2023/06/22 06:13:08;;;;;;;12.10;8.43;;;19.40;90.00;;;;;;5088946;28;20219;-59
2023/06/22 06:15:36;;;;;;;10.47;8.97;;;19.40;88.80;;;;;;5086283;28;20242;-59
2023/06/22 06:18:06;;;;;;;11.03;8.93;;;19.50;90.50;;;;;;5089974;28;20195;-59
2023/06/22 06:20:35;;;;;;;13.03;9.53;;;19.50;85.40;;;;;;5080209;28;20255;-60
2023/06/22 06:23:03;;;;;;;14.67;9.37;;;19.60;96.00;;;;;;5089047;28;20215;-59
2023/06/22 06:25:32;;;;;;;12.17;8.87;;;19.70;92.20;;;;;;5089070;28;20310;-59
2023/06/22 06:28:00;;;;;;;13.03;9.00;;;19.80;93.00;;;;;;5090263;28;20554;-60
2023/06/22 06:30:29;;;;;;;9.87;8.87;;;19.90;93.10;;;;;;5088321;28;20188;-59
2023/06/22 06:32:58;;;;;;;12.93;10.07;;;19.90;94.80;;;;;;5089755;28;20183;-59
2023/06/22 06:35:27;;;;;;;14.97;10.40;;;20.00;92.50;;;;;;5086251;28;20585;-59
2023/06/22 06:37:56;;;;;;;14.57;9.73;;;20.10;86.30;;;;;;5091076;28;20233;-59
2023/06/22 06:40:25;;;;;;;15.40;10.70;;;20.20;90.00;;;;;;5071299;28;20301;-59
2023/06/22 06:42:54;;;;;;;12.80;9.70;;;20.30;78.20;;;;;;5089286;28;20276;-59
2023/06/22 06:45:23;;;;;;;14.93;10.67;;;20.30;76.30;;;;;;5066509;28;20211;-59
2023/06/22 06:47:53;;;;;;;13.07;10.13;;;20.40;80.60;;;;;;5083321;28;20697;-59
2023/06/22 06:50:21;;;;;;;11.10;9.93;;;20.40;81.60;;;;;;5090318;28;20574;-59
2023/06/22 06:52:51;;;;;;;14.30;10.93;;;20.50;77.50;;;;;;5089658;28;20219;-59
2023/06/22 06:55:20;;;;;;;15.90;10.90;;;20.50;71.60;;;;;;5086631;28;20268;-59
2023/06/22 06:57:49;;;;;;;14.90;11.77;;;20.50;63.20;;;;;;5083691;28;20237;-59
2023/06/22 07:00:19;;;;;;;14.17;10.63;;;20.50;60.80;;;;;;5083206;28;20279;-59
2023/06/22 07:02:48;;;;;;;15.50;11.37;;;20.50;65.90;;;;;;5084755;28;20207;-60
2023/06/22 07:05:17;;;;;;;20.27;12.00;;;20.60;63.30;;;;;;5089294;28;20231;-59
2023/06/22 07:07:45;;;;;;;20.17;12.60;;;20.60;60.60;;;;;;5086888;28;20215;-59
2023/06/22 07:10:16;;;;;;;13.70;10.87;;;20.60;62.80;;;;;;5077857;28;20219;-59
2023/06/22 07:12:44;;;;;;;19.97;12.23;;;20.60;67.70;;;;;;5077568;28;20713;-59
2023/06/22 07:15:13;;;;;;;17.63;11.77;;;20.60;65.90;;;;;;5068182;28;20196;-59
2023/06/22 07:17:41;;;;;;;20.77;11.70;;;20.60;69.00;;;;;;5086124;28;20539;-59
2023/06/22 07:20:11;;;;;;;17.53;12.53;;;20.60;77.40;;;;;;5084122;28;20730;-59
2023/06/22 07:22:42;;;;;;;16.07;12.97;;;20.70;79.40;;;;;;5083961;28;20227;-59
2023/06/22 07:25:13;;;;;;;16.43;13.17;;;20.70;78.30;;;;;;5084998;28;20243;-59
2023/06/22 07:27:47;;;;;;;18.10;13.10;;;20.70;82.00;;;;;;5086601;28;20211;-59
2023/06/22 07:30:16;;;;;;;20.53;13.07;;;20.80;77.70;;;;;;5087017;28;20932;-59
2023/06/22 07:32:44;;;;;;;19.33;14.00;;;20.80;81.80;;;;;;5087437;28;20188;-58
2023/06/22 07:35:13;;;;;;;19.40;12.23;;;20.90;73.70;;;;;;5086193;28;20220;-59
2023/06/22 07:37:41;;;;;;;21.73;14.47;;;21.00;68.80;;;;;;5087909;28;20221;-59
2023/06/22 07:40:10;;;;;;;17.93;13.17;;;21.00;69.50;;;;;;5088747;28;20223;-59
2023/06/22 07:42:39;;;;;;;21.50;14.70;;;21.10;65.40;;;;;;5083599;28;20215;-59
2023/06/22 07:45:09;;;;;;;18.60;14.23;;;21.10;65.00;;;;;;5072491;28;20213;-59
2023/06/22 07:47:38;;;;;;;18.50;14.63;;;21.10;65.70;;;;;;5092815;28;20230;-59
2023/06/22 07:50:07;;;;;;;24.23;14.73;;;21.10;60.20;;;;;;5092671;28;20222;-59
2023/06/22 07:52:35;;;;;;;24.83;15.83;;;21.10;62.60;;;;;;5086756;28;20231;-60
2023/06/22 07:55:04;;;;;;;19.27;15.10;;;21.10;63.60;;;;;;5089450;28;20215;-59
2023/06/22 07:57:36;;;;;;;22.63;14.87;;;21.20;60.30;;;;;;5093109;28;20225;-59
2023/06/22 08:00:12;;;;;;;20.50;15.60;;;21.20;64.90;;;;;;5090546;28;20192;-59
2023/06/22 08:02:42;;;;;;;23.17;15.37;;;21.20;57.70;;;;;;5092566;28;20321;-59
2023/06/22 08:05:11;;;;;;;23.73;16.50;;;21.20;61.10;;;;;;5093757;28;20538;-59
2023/06/22 08:07:49;;;;;;;21.63;16.33;;;21.30;64.00;;;;;;5093818;28;20228;-59
2023/06/22 08:10:19;;;;;;;22.07;16.33;;;21.30;56.60;;;;;;5092269;28;20223;-59
2023/06/22 08:12:47;;;;;;;23.57;16.10;;;21.40;50.00;;;;;;5091856;28;20538;-59
2023/06/22 08:15:16;;;;;;;25.50;15.97;;;21.40;48.80;;;;;;5093793;28;20608;-59
2023/06/22 08:17:46;;;;;;;22.90;15.93;;;21.50;53.00;;;;;;5094114;28;20208;-60
2023/06/22 08:20:15;;;;;;;23.17;17.83;;;21.50;53.80;;;;;;5093473;28;20281;-59
2023/06/22 08:22:43;;;;;;;22.73;16.57;;;21.50;47.40;;;;;;5092724;28;20220;-59
2023/06/22 08:25:13;;;;;;;24.57;17.93;;;21.50;54.60;;;;;;5092181;28;20222;-59
2023/06/22 08:27:41;;;;;;;22.77;17.10;;;21.60;48.70;;;;;;5092898;28;20237;-59
2023/06/22 08:30:11;;;;;;;26.10;17.60;;;21.60;44.10;;;;;;5093789;28;20206;-60
2023/06/22 08:32:40;;;;;;;23.80;17.23;;;21.60;42.30;;;;;;5090647;28;20226;-59
2023/06/22 08:35:11;;;;;;;19.23;16.20;;;21.60;42.30;;;;;;5091967;28;20254;-59
2023/06/22 08:37:40;;;;;;;23.83;18.27;;;21.60;53.30;;;;;;5092639;28;20311;-60
2023/06/22 08:40:10;;;;;;;23.37;17.67;;;21.60;49.60;;;;;;5089123;28;20228;-59
2023/06/22 08:42:41;;;;;;;24.70;18.10;;;21.60;48.60;;;;;;5071481;28;22245;-60
2023/06/22 08:45:11;;;;;;;27.60;19.10;;;21.60;46.90;;;;;;5090480;28;20223;-59
2023/06/22 08:47:40;;;;;;;21.83;17.53;;;21.60;38.70;;;;;;5088973;28;20239;-59
2023/06/22 08:50:12;;;;;;;25.77;18.10;;;21.60;52.40;;;;;;5086193;28;20227;-59
2023/06/22 08:52:42;;;;;;;21.70;16.07;;;21.60;50.00;;;;;;5092825;28;20228;-59
2023/06/22 08:55:11;;;;;;;21.73;16.70;;;21.60;50.70;;;;;;5092213;28;20558;-59
2023/06/22 08:57:39;;;;;;;22.77;17.13;;;21.60;51.70;;;;;;5091458;28;20282;-59
2023/06/22 09:00:17;;;;;;;28.47;16.43;;;21.60;51.50;;;;;;5085785;28;20637;-60
2023/06/22 09:02:46;;;;;;;19.30;15.43;;;21.60;48.20;;;;;;5087740;28;20222;-59
2023/06/22 09:05:17;;;;;;;21.40;16.77;;;21.70;49.00;;;;;;5088572;28;20216;-59
2023/06/22 09:07:45;;;;;;;30.17;17.60;;;21.60;53.10;;;;;;5091479;28;20573;-59
2023/06/22 09:10:14;;;;;;;25.77;17.67;;;21.60;49.00;;;;;;5085226;28;20586;-59
2023/06/22 09:12:46;;;;;;;27.43;17.63;;;21.60;49.50;;;;;;5089085;28;20315;-60
2023/06/22 09:15:14;;;;;;;28.80;19.20;;;21.60;52.80;;;;;;5086880;28;20195;-59
2023/06/22 09:17:47;;;;;;;22.57;18.30;;;21.60;64.20;;;;;;5090642;28;20652;-60
2023/06/22 09:20:17;;;;;;;28.73;19.47;;;21.60;59.40;;;;;;5089198;28;20212;-59
2023/06/22 09:22:46;;;;;;;25.17;18.57;;;21.50;75.30;;;;;;5089720;28;20567;-59
2023/06/22 09:25:14;;;;;;;27.43;20.00;;;21.50;83.50;;;;;;5084144;28;20219;-59
2023/06/22 09:27:43;;;;;;;29.40;20.60;;;21.50;76.60;;;;;;5088729;28;20613;-59
2023/06/22 09:30:12;;;;;;;25.17;18.53;;;21.40;80.20;;;;;;5083081;28;20188;-59
2023/06/22 09:32:40;;;;;;;25.93;19.97;;;21.30;78.60;;;;;;5091579;28;20198;-59
2023/06/22 09:35:12;;;;;;;25.73;19.63;;;21.30;90.50;;;;;;5073225;28;20216;-59
2023/06/22 09:37:43;;;;;;;24.53;19.30;;;21.30;88.20;;;;;;5089503;28;20238;-59
2023/06/22 09:40:12;;;;;;;27.63;18.63;;;21.20;78.20;;;;;;5087717;28;20574;-59
2023/06/22 09:42:53;;;;;;;23.70;18.50;;;21.20;83.90;;;;;;5084668;28;20246;-59
2023/06/22 09:45:22;;;;;;;26.50;19.30;;;21.20;90.40;;;;;;5088761;28;20278;-59
2023/06/22 09:47:51;;;;;;;27.53;19.67;;;21.20;80.80;;;;;;5074118;28;20228;-59
2023/06/22 09:50:19;;;;;;;25.87;20.13;;;21.20;83.80;;;;;;5083769;28;20577;-60
2023/06/22 09:52:54;;;;;;;29.63;19.70;;;21.20;93.70;;;;;;5088331;28;20693;-59
2023/06/22 09:55:23;;;;;;;31.10;19.93;;;21.20;98.10;;;;;;5090332;28;20219;-60
2023/06/22 09:57:51;;;;;;;31.73;20.87;;;21.20;99.90;;;;;;5090894;28;20227;-60
2023/06/22 10:00:20;;;;;;;31.50;21.37;;;21.10;99.90;;;;;;5091295;28;20187;-60
2023/06/22 10:02:48;;;;;;;33.07;21.93;;;21.10;99.90;;;;;;5092459;28;20219;-60
2023/06/22 10:05:20;;;;;;;38.57;25.87;;;21.10;99.90;;;;;;5093013;28;20215;-61
2023/06/22 10:07:50;;;;;;;47.77;28.67;;;21.10;99.90;;;;;;5078450;28;20212;-61
2023/06/22 10:10:18;;;;;;;40.20;25.23;;;21.10;99.90;;;;;;5090348;28;22102;-61
2023/06/22 10:12:49;;;;;;;36.93;26.07;;;20.90;99.90;;;;;;5086764;28;20211;-61
2023/06/22 10:15:17;;;;;;;43.80;28.77;;;20.70;99.90;;;;;;5091526;28;20199;-61
2023/06/22 10:17:46;;;;;;;44.47;30.73;;;20.70;99.90;;;;;;5082881;28;20248;-61
2023/06/22 10:20:15;;;;;;;50.13;30.93;;;20.50;99.90;;;;;;5091921;28;20217;-61
2023/06/22 10:22:45;;;;;;;43.43;30.33;;;20.40;99.90;;;;;;5091008;28;20573;-61
2023/06/22 10:25:15;;;;;;;49.17;31.80;;;20.30;99.90;;;;;;5091687;28;20322;-61
2023/06/22 10:27:44;;;;;;;59.63;36.30;;;20.30;99.90;;;;;;5090750;28;20647;-60
2023/06/22 10:30:14;;;;;;;60.60;36.63;;;20.40;99.90;;;;;;5090918;28;20187;-60
2023/06/22 10:33:01;;;;;;;53.33;34.90;;;20.40;99.90;;;;;;5091713;28;20704;-61
2023/06/22 10:35:29;;;;;;;63.07;37.83;;;20.30;99.90;;;;;;5088420;28;20314;-61
2023/06/22 10:37:58;;;;;;;68.03;38.57;;;20.30;99.90;;;;;;5083082;28;20211;-61
2023/06/22 10:40:28;;;;;;;52.13;33.07;;;20.30;99.90;;;;;;5091684;28;20245;-61
2023/06/22 10:46:37;;;;;;;46.07;30.07;;;20.20;99.90;;;;;;5092949;28;20625;-61
2023/06/22 10:49:06;;;;;;;45.30;30.53;;;20.00;99.90;;;;;;5092586;28;20242;-61
2023/06/22 10:51:34;;;;;;;40.37;26.43;;;19.90;99.90;;;;;;5092738;28;20254;-61
2023/06/22 10:54:04;;;;;;;39.47;27.67;;;19.70;99.90;;;;;;5093164;28;20183;-61
2023/06/22 10:56:34;;;;;;;43.07;27.20;;;19.60;99.90;;;;;;5092687;28;20305;-61
2023/06/22 10:59:02;;;;;;;41.30;28.47;;;19.50;99.90;;;;;;5083415;28;20693;-61
2023/06/22 11:01:33;;;;;;;43.93;28.93;;;19.40;99.90;;;;;;5090725;28;20223;-62
2023/06/22 11:04:04;;;;;;;46.47;28.97;;;19.30;99.90;;;;;;5096427;28;20826;-61
2023/06/22 11:06:33;;;;;;;45.10;29.17;;;19.30;99.90;;;;;;5097191;28;20219;-61
2023/06/22 11:09:01;;;;;;;42.00;28.47;;;19.30;99.90;;;;;;5097571;28;20244;-61
2023/06/22 11:11:54;;;;;;;46.90;29.47;;;19.30;99.90;;;;;;5096820;28;20215;-61
2023/06/22 11:14:22;;;;;;;41.90;28.80;;;19.30;99.90;;;;;;5096728;28;20222;-60
2023/06/22 11:16:51;;;;;;;40.97;27.37;;;19.30;99.90;;;;;;5096782;28;20405;-60
2023/06/22 11:19:19;;;;;;;43.87;28.30;;;19.10;99.90;;;;;;5096571;28;20211;-60
2023/06/22 11:21:47;;;;;;;41.10;29.30;;;19.10;99.90;;;;;;5099465;28;20234;-60
2023/06/22 11:24:17;;;;;;;53.00;31.60;;;19.10;99.90;;;;;;5100031;28;20755;-60
2023/06/22 11:26:45;;;;;;;54.30;34.23;;;19.10;99.90;;;;;;5096151;28;20208;-61
2023/06/22 11:29:15;;;;;;;55.40;35.97;;;19.20;99.90;;;;;;5094771;28;20218;-60
2023/06/22 11:31:59;;;;;;;59.53;36.50;;;19.30;99.90;;;;;;5103546;28;20228;-60
2023/06/22 11:34:28;;;;;;;53.93;34.83;;;19.30;99.90;;;;;;5105469;28;20245;-61
2023/06/22 11:36:56;;;;;;;52.87;34.70;;;19.40;99.90;;;;;;5096960;28;20531;-61
2023/06/22 11:39:24;;;;;;;44.80;29.93;;;19.40;99.90;;;;;;5095887;28;20220;-61
2023/06/22 11:42:08;;;;;;;46.27;29.03;;;19.30;99.90;;;;;;5095941;28;20190;-61
2023/06/22 11:44:38;;;;;;;43.23;28.47;;;19.20;99.90;;;;;;5095530;28;20238;-61
2023/06/22 11:47:07;;;;;;;42.77;28.10;;;19.20;99.90;;;;;;5095453;28;20223;-61
2023/06/22 11:49:35;;;;;;;36.90;25.37;;;19.20;99.90;;;;;;5095224;28;20243;-61
2023/06/22 11:52:04;;;;;;;35.87;24.73;;;19.10;99.90;;;;;;5085291;28;20219;-61
2023/06/22 11:54:33;;;;;;;30.47;22.73;;;19.00;99.90;;;;;;5095028;28;20228;-61
2023/06/22 11:57:01;;;;;;;37.93;24.63;;;19.00;99.90;;;;;;5091847;28;20199;-61
2023/06/22 11:59:30;;;;;;;36.27;23.87;;;19.00;99.90;;;;;;5093974;28;20608;-61
2023/06/22 12:02:00;;;;;;;34.53;23.40;;;19.00;99.90;;;;;;5095462;28;20581;-61
2023/06/22 12:04:28;;;;;;;38.27;25.43;;;19.00;99.90;;;;;;5093134;28;20715;-61
2023/06/22 12:06:56;;;;;;;36.67;25.10;;;19.00;99.90;;;;;;5076727;28;20223;-61
2023/06/22 12:13:05;;;;;;;40.37;24.83;;;18.90;99.90;;;;;;5093581;28;20211;-61
2023/06/22 12:19:54;;;;;;;41.30;26.13;;;18.90;99.90;;;;;;5094216;28;20701;-62
2023/06/22 12:22:24;;;;;;;41.30;27.50;;;18.90;99.90;;;;;;5087465;28;20219;-61
2023/06/22 12:24:52;;;;;;;41.43;26.50;;;18.90;99.90;;;;;;5095188;28;20223;-62
2023/06/22 12:27:20;;;;;;;42.57;27.37;;;18.90;99.90;;;;;;5095595;28;20191;-62
2023/06/22 12:29:48;;;;;;;38.77;25.93;;;18.90;99.90;;;;;;5077692;28;20618;-62
2023/06/22 12:32:17;;;;;;;43.60;27.80;;;18.90;99.90;;;;;;5095304;28;20223;-62
2023/06/22 12:34:45;;;;;;;42.83;26.77;;;18.90;99.90;;;;;;5095384;28;20223;-62
2023/06/22 12:37:14;;;;;;;41.93;25.87;;;18.90;99.90;;;;;;5095229;28;20215;-62
2023/06/22 12:39:45;;;;;;;35.57;23.30;;;18.90;99.90;;;;;;5095293;28;20225;-62
2023/06/22 12:42:13;;;;;;;33.43;22.50;;;18.90;99.90;;;;;;5095749;28;20191;-61
2023/06/22 12:44:42;;;;;;;31.73;20.33;;;18.90;99.90;;;;;;5095882;28;20601;-61
2023/06/22 12:47:10;;;;;;;33.83;20.77;;;18.90;99.90;;;;;;5095172;28;20604;-61
2023/06/22 12:53:20;;;;;;;30.17;18.70;;;18.80;99.90;;;;;;5094519;28;20684;-61
2023/06/22 12:59:30;;;;;;;26.10;18.23;;;18.70;99.90;;;;;;5086324;28;20226;-61
2023/06/22 13:01:58;;;;;;;27.10;18.57;;;18.60;99.90;;;;;;5094808;28;20577;-61
2023/06/22 13:04:27;;;;;;;29.70;19.13;;;18.50;99.90;;;;;;5094364;28;20693;-61